Time,TemperatureF,DewpointF,PressureIn,WindDirection,WindDirectionDegrees,WindSpeedMPH,WindSpeedGustMPH,Humidity,HourlyPrecipIn,Conditions,Clouds,dailyrainin,SoftwareType,DateUTC
2013-03-09 00:00:00,36.5,-8.2,29.74,WNW,298,0.0,0.0,14,0.00,,,0.00,Weather View 32 v70,2013-03-09 05:00:00,
2013-03-09 00:05:00,36.1,-8.5,29.74,WNW,298,0.0,0.0,14,0.00,,,0.00,Weather View 32 v70,2013-03-09 05:05:00,
2013-03-09 00:10:00,36.0,-8.7,29.74,WNW,298,0.0,0.0,14,0.00,,,0.00,Weather View 32 v70,2013-03-09 05:10:00,
2013-03-09 00:15:00,35.6,-8.9,29.74,WNW,300,0.0,0.0,14,0.00,,,0.00,Weather View 32 v70,2013-03-09 05:15:00,
2013-03-09 00:20:00,35.2,-7.8,29.74,WNW,300,0.0,0.0,15,0.00,,,0.00,Weather View 32 v70,2013-03-09 05:20:00,
2013-03-09 00:25:00,35.1,-5.4,29.74,NNW,334,0.0,0.0,17,0.00,,,0.00,Weather View 32 v70,2013-03-09 05:25:00,
2013-03-09 00:30:00,35.1,-5.4,29.74,NNW,338,0.0,0.0,17,0.00,,,0.00,Weather View 32 v70,2013-03-09 05:30:00,
2013-03-09 00:40:00,35.1,-5.4,29.74,NNW,338,0.0,0.0,17,0.00,,,0.00,Weather View 32 v70,2013-03-09 05:40:00,
2013-03-09 00:50:00,34.3,-8.6,29.74,NNW,338,0.0,0.0,15,0.00,,,0.00,Weather View 32 v70,2013-03-09 05:50:00,
2013-03-09 00:55:00,34.0,-8.9,29.74,NNW,338,0.0,0.0,15,0.00,,,0.00,Weather View 32 v70,2013-03-09 05:55:00,
2013-03-09 01:05:00,33.3,-9.4,29.74,NW,325,0.0,0.0,15,0.00,,,0.00,Weather View 32 v70,2013-03-09 06:05:00,
2013-03-09 01:15:00,32.7,-9.9,29.74,NW,326,0.0,0.0,15,0.00,,,0.00,Weather View 32 v70,2013-03-09 06:15:00,
2013-03-09 01:20:00,32.7,-6.1,29.74,NW,326,0.0,0.0,18,0.00,,,0.00,Weather View 32 v70,2013-03-09 06:20:00,
2013-03-09 01:29:00,32.4,-6.4,29.74,NW,326,0.0,0.0,18,0.00,,,0.00,Weather View 32 v70,2013-03-09 06:29:00,
2013-03-09 01:35:00,32.0,-6.7,29.77,NW,326,0.0,0.0,18,0.00,,,0.00,Weather View 32 v70,2013-03-09 06:35:00,
2013-03-09 01:40:00,31.8,-6.9,29.77,NW,317,0.0,0.0,18,0.00,,,0.00,Weather View 32 v70,2013-03-09 06:40:00,
2013-03-09 01:45:00,31.8,-6.9,29.77,NW,314,0.0,0.0,18,0.00,,,0.00,Weather View 32 v70,2013-03-09 06:45:00,
2013-03-09 01:55:00,31.5,-7.2,29.77,NW,313,0.0,0.0,18,0.00,,,0.00,Weather View 32 v70,2013-03-09 06:55:00,
2013-03-09 02:05:00,32.0,-4.6,29.77,NW,313,0.0,0.0,20,0.00,,,0.00,Weather View 32 v70,2013-03-09 07:05:00,
2013-03-09 02:15:00,32.5,-4.1,29.77,NW,324,0.0,0.0,20,0.00,,,0.00,Weather View 32 v70,2013-03-09 07:15:00,
2013-03-09 02:20:00,32.5,-4.1,29.77,NW,324,0.0,0.0,20,0.00,,,0.00,Weather View 32 v70,2013-03-09 07:20:00,
2013-03-09 02:29:00,32.5,-6.3,29.77,NW,324,0.0,0.0,18,0.00,,,0.00,Weather View 32 v70,2013-03-09 07:29:00,
2013-03-09 02:35:00,32.2,-6.6,29.77,NW,310,0.0,0.0,18,0.00,,,0.00,Weather View 32 v70,2013-03-09 07:35:00,
2013-03-09 02:40:00,31.8,-6.9,29.77,NW,304,0.0,0.0,18,0.00,,,0.00,Weather View 32 v70,2013-03-09 07:40:00,
2013-03-09 02:45:00,31.5,-7.2,29.77,NW,304,0.0,0.0,18,0.00,,,0.00,Weather View 32 v70,2013-03-09 07:45:00,
2013-03-09 02:55:00,31.1,-5.3,29.74,NW,304,0.0,0.0,20,0.00,,,0.00,Weather View 32 v70,2013-03-09 07:55:00,
2013-03-09 03:05:00,30.9,-7.6,29.74,NW,304,0.0,0.0,18,0.00,,,0.00,Weather View 32 v70,2013-03-09 08:05:00,
2013-03-09 03:10:00,30.6,-7.9,29.74,NW,304,0.0,0.0,18,0.00,,,0.00,Weather View 32 v70,2013-03-09 08:10:00,
2013-03-09 03:20:00,30.0,-8.4,29.74,NW,304,0.0,0.0,18,0.00,,,0.00,Weather View 32 v70,2013-03-09 08:20:00,
2013-03-09 03:30:00,29.5,-6.7,29.74,NW,304,0.0,0.0,20,0.00,,,0.00,Weather View 32 v70,2013-03-09 08:30:00,
2013-03-09 03:40:00,29.1,-7.0,29.74,NW,304,0.0,0.0,20,0.00,,,0.00,Weather View 32 v70,2013-03-09 08:40:00,
2013-03-09 03:50:00,28.9,-7.1,29.74,NW,304,0.0,0.0,20,0.00,,,0.00,Weather View 32 v70,2013-03-09 08:50:00,
2013-03-09 03:55:00,28.9,-7.1,29.74,NW,304,0.0,0.0,20,0.00,,,0.00,Weather View 32 v70,2013-03-09 08:55:00,
2013-03-09 04:05:00,28.8,-7.3,29.74,NW,304,0.0,0.0,20,0.00,,,0.00,Weather View 32 v70,2013-03-09 09:05:00,
2013-03-09 04:15:00,28.8,-4.4,29.74,NW,304,0.0,0.0,23,0.00,,,0.00,Weather View 32 v70,2013-03-09 09:15:00,
2013-03-09 04:20:00,28.6,-4.5,29.74,NW,304,0.0,0.0,23,0.00,,,0.00,Weather View 32 v70,2013-03-09 09:20:00,
2013-03-09 04:30:00,28.2,-4.9,29.74,NW,304,0.0,0.0,23,0.00,,,0.00,Weather View 32 v70,2013-03-09 09:30:00,
2013-03-09 04:35:00,28.0,-5.0,29.74,NW,304,0.0,0.0,23,0.00,,,0.00,Weather View 32 v70,2013-03-09 09:35:00,
2013-03-09 04:45:00,28.0,-5.0,29.74,NW,304,0.0,0.0,23,0.00,,,0.00,Weather View 32 v70,2013-03-09 09:45:00,
2013-03-09 04:55:00,28.2,-2.3,29.74,NW,304,0.0,0.0,26,0.00,,,0.00,Weather View 32 v70,2013-03-09 09:55:00,
2013-03-09 05:05:00,28.0,-2.4,29.74,NW,304,0.0,0.0,26,0.00,,,0.00,Weather View 32 v70,2013-03-09 10:05:00,
2013-03-09 05:10:00,28.0,-2.4,29.74,NW,304,0.0,0.0,26,0.00,,,0.00,Weather View 32 v70,2013-03-09 10:10:00,
2013-03-09 05:20:00,27.9,-2.6,29.77,NW,304,0.0,0.0,26,0.00,,,0.00,Weather View 32 v70,2013-03-09 10:20:00,
2013-03-09 05:30:00,27.7,-2.8,29.77,NW,304,0.0,0.0,26,0.00,,,0.00,Weather View 32 v70,2013-03-09 10:30:00,
2013-03-09 05:35:00,27.5,-2.9,29.77,NW,304,0.0,0.0,26,0.00,,,0.00,Weather View 32 v70,2013-03-09 10:35:00,
2013-03-09 05:45:00,27.3,-3.1,29.77,NW,304,0.0,0.0,26,0.00,,,0.00,Weather View 32 v70,2013-03-09 10:45:00,
2013-03-09 05:55:00,27.3,-3.1,29.77,NW,304,0.0,0.0,26,0.00,,,0.00,Weather View 32 v70,2013-03-09 10:55:00,
2013-03-09 06:00:00,27.3,-3.1,29.77,NW,304,0.0,0.0,26,0.00,,,0.00,Weather View 32 v70,2013-03-09 11:00:00,
2013-03-09 06:10:00,27.1,-3.2,29.77,NW,304,0.0,0.0,26,0.00,,,0.00,Weather View 32 v70,2013-03-09 11:10:00,
2013-03-09 06:15:00,27.1,-1.7,29.77,NW,304,0.0,0.0,28,0.00,,,0.00,Weather View 32 v70,2013-03-09 11:15:00,
2013-03-09 06:25:00,27.3,-1.5,29.77,NW,304,0.0,0.0,28,0.00,,,0.00,Weather View 32 v70,2013-03-09 11:25:00,
2013-03-09 06:32:00,27.5,-1.4,29.77,NW,304,0.0,0.0,28,0.00,,,0.00,Weather View 32 v70,2013-03-09 11:32:00,
2013-03-09 06:40:00,28.0,1.3,29.77,WNW,296,0.0,0.0,31,0.00,,,0.00,Weather View 32 v70,2013-03-09 11:40:00,
2013-03-09 06:45:00,28.2,1.4,29.77,WNW,296,0.0,0.0,31,0.00,,,0.00,Weather View 32 v70,2013-03-09 11:45:00,
2013-03-09 06:50:00,28.2,1.4,29.77,WNW,296,0.0,0.0,31,0.00,,,0.00,Weather View 32 v70,2013-03-09 11:50:00,
2013-03-09 07:00:00,28.6,1.1,29.77,WNW,296,0.0,0.0,30,0.00,,,0.00,Weather View 32 v70,2013-03-09 12:00:00,
2013-03-09 07:10:00,30.4,3.3,29.77,WNW,282,0.0,0.0,31,0.00,,,0.00,Weather View 32 v70,2013-03-09 12:10:00,
2013-03-09 07:15:00,32.0,4.8,29.77,West,275,0.0,0.0,31,0.00,,,0.00,Weather View 32 v70,2013-03-09 12:15:00,
2013-03-09 07:25:00,35.1,7.4,29.77,West,275,0.0,0.0,31,0.00,,,0.00,Weather View 32 v70,2013-03-09 12:25:00,
2013-03-09 07:32:00,36.7,8.9,29.77,West,275,0.0,0.0,31,0.00,,,0.00,Weather View 32 v70,2013-03-09 12:32:00,
2013-03-09 07:40:00,38.7,9.1,29.80,West,275,0.0,0.0,29,0.00,,,0.00,Weather View 32 v70,2013-03-09 12:40:00,
2013-03-09 07:45:00,38.8,9.3,29.80,West,275,0.0,0.0,29,0.00,,,0.00,Weather View 32 v70,2013-03-09 12:45:00,
2013-03-09 07:50:00,39.7,10.0,29.77,West,275,0.0,0.0,29,0.00,,,0.00,Weather View 32 v70,2013-03-09 12:50:00,
2013-03-09 08:00:00,39.4,2.6,29.77,NW,323,0.0,0.0,21,0.00,,,0.00,Weather View 32 v70,2013-03-09 13:00:00,
2013-03-09 08:10:00,39.7,-0.4,29.80,North,0,0.0,0.0,18,0.00,,,0.00,Weather View 32 v70,2013-03-09 13:10:00,
2013-03-09 08:15:00,39.9,-0.2,29.80,North,2,0.0,0.0,18,0.00,,,0.00,Weather View 32 v70,2013-03-09 13:15:00,
2013-03-09 08:25:00,41.2,4.2,29.80,North,0,0.0,0.0,21,0.00,,,0.00,Weather View 32 v70,2013-03-09 13:25:00,
2013-03-09 08:30:00,42.3,1.7,29.80,North,357,0.0,0.0,18,0.00,,,0.00,Weather View 32 v70,2013-03-09 13:30:00,
2013-03-09 08:40:00,44.2,-0.5,29.80,North,357,8.0,8.0,15,0.00,,,0.00,Weather View 32 v70,2013-03-09 13:40:00,
2013-03-09 08:50:00,45.9,0.8,29.80,NE,56,5.0,8.0,15,0.00,,,0.00,Weather View 32 v70,2013-03-09 13:50:00,
2013-03-09 09:00:00,45.7,-4.1,29.80,ENE,74,3.0,12.0,12,0.00,,,0.00,Weather View 32 v70,2013-03-09 14:00:00,
2013-03-09 09:10:00,45.9,-3.9,29.80,ESE,103,5.0,12.0,12,0.00,,,0.00,Weather View 32 v70,2013-03-09 14:10:00,
2013-03-09 09:20:00,46.2,-3.7,29.80,East,100,5.0,12.0,12,0.00,,,0.00,Weather View 32 v70,2013-03-09 14:20:00,
2013-03-09 09:30:00,46.8,-3.2,29.80,NE,52,13.0,13.0,12,0.00,,,0.00,Weather View 32 v70,2013-03-09 14:30:00,
2013-03-09 09:35:00,47.3,-2.8,29.80,East,84,8.0,13.0,12,0.00,,,0.00,Weather View 32 v70,2013-03-09 14:35:00,
2013-03-09 09:45:00,47.7,-2.5,29.80,East,88,5.0,13.0,12,0.00,,,0.00,Weather View 32 v70,2013-03-09 14:45:00,
2013-03-09 09:55:00,47.8,-2.4,29.80,ENE,70,4.0,13.0,12,0.00,,,0.00,Weather View 32 v70,2013-03-09 14:55:00,
2013-03-09 10:00:00,48.2,-3.9,29.80,NNW,330,0.0,13.0,11,0.00,,,0.00,Weather View 32 v70,2013-03-09 15:00:00,
2013-03-09 10:10:00,49.1,-3.2,29.80,ENE,62,0.0,13.0,11,0.00,,,0.00,Weather View 32 v70,2013-03-09 15:10:00,
2013-03-09 10:15:00,48.9,-3.4,29.80,ENE,78,6.0,13.0,11,0.00,,,0.00,Weather View 32 v70,2013-03-09 15:15:00,
2013-03-09 10:25:00,49.5,-2.9,29.80,NE,46,0.0,13.0,11,0.00,,,0.00,Weather View 32 v70,2013-03-09 15:25:00,
2013-03-09 10:34:00,49.8,-2.7,29.80,NNE,30,4.0,13.0,11,0.00,,,0.00,Weather View 32 v70,2013-03-09 15:34:00,
2013-03-09 10:40:00,50.7,-2.0,29.80,North,3,3.0,13.0,11,0.00,,,0.00,Weather View 32 v70,2013-03-09 15:40:00,
2013-03-09 10:45:00,51.3,-1.5,29.80,East,85,6.0,13.0,11,0.00,,,0.00,Weather View 32 v70,2013-03-09 15:45:00,
2013-03-09 10:50:00,51.1,-1.7,29.80,East,95,8.0,11.0,11,0.00,,,0.00,Weather View 32 v70,2013-03-09 15:50:00,
2013-03-09 11:00:00,51.8,-1.1,29.80,North,353,0.0,11.0,11,0.00,,,0.00,Weather View 32 v70,2013-03-09 16:00:00,
2013-03-09 11:05:00,52.2,-0.8,29.80,NNE,31,2.0,11.0,11,0.00,,,0.00,Weather View 32 v70,2013-03-09 16:05:00,
2013-03-09 11:15:00,53.4,0.1,29.80,North,350,6.0,11.0,11,0.00,,,0.00,Weather View 32 v70,2013-03-09 16:15:00,
2013-03-09 11:25:00,53.6,-1.7,29.80,East,85,3.0,9.0,10,0.00,,,0.00,Weather View 32 v70,2013-03-09 16:25:00,
2013-03-09 11:30:00,54.0,-1.5,29.80,East,79,0.0,9.0,10,0.00,,,0.00,Weather View 32 v70,2013-03-09 16:30:00,
2013-03-09 11:40:00,54.3,-1.2,29.80,East,98,8.0,9.0,10,0.00,,,0.00,Weather View 32 v70,2013-03-09 16:40:00,
2013-03-09 11:50:00,54.5,-1.1,29.80,NW,323,4.0,9.0,10,0.00,,,0.00,Weather View 32 v70,2013-03-09 16:50:00,
2013-03-09 11:55:00,54.7,-0.9,29.80,NNE,18,5.0,9.0,10,0.00,,,0.00,Weather View 32 v70,2013-03-09 16:55:00,
2013-03-09 12:05:00,55.2,-0.5,29.80,ENE,60,5.0,10.0,10,0.00,,,0.00,Weather View 32 v70,2013-03-09 17:05:00,
2013-03-09 12:15:00,55.9,0.1,29.80,NW,318,3.0,10.0,10,0.00,,,0.00,Weather View 32 v70,2013-03-09 17:15:00,
2013-03-09 12:20:00,55.9,0.1,29.80,NNW,346,5.0,10.0,10,0.00,,,0.00,Weather View 32 v70,2013-03-09 17:20:00,
2013-03-09 12:30:00,56.3,0.3,29.80,ENE,66,6.0,10.0,10,0.00,,,0.00,Weather View 32 v70,2013-03-09 17:30:00,
2013-03-09 12:35:00,56.3,0.3,29.77,ENE,77,8.0,10.0,10,0.00,,,0.00,Weather View 32 v70,2013-03-09 17:35:00,
2013-03-09 12:45:00,56.5,0.5,29.77,ENE,70,5.0,10.0,10,0.00,,,0.00,Weather View 32 v70,2013-03-09 17:45:00,
2013-03-09 12:55:00,57.2,-1.2,29.77,NE,37,5.0,10.0,9,0.00,,,0.00,Weather View 32 v70,2013-03-09 17:55:00,
2013-03-09 13:05:00,57.4,-1.1,29.74,NNE,28,7.0,10.0,9,0.00,,,0.00,Weather View 32 v70,2013-03-09 18:05:00,
2013-03-09 13:15:00,57.4,-1.1,29.74,NNW,338,6.0,10.0,9,0.00,,,0.00,Weather View 32 v70,2013-03-09 18:15:00,
2013-03-09 13:20:00,57.7,-0.8,29.77,NE,51,2.0,10.0,9,0.00,,,0.00,Weather View 32 v70,2013-03-09 18:20:00,
2013-03-09 13:30:00,58.1,-0.5,29.77,ENE,68,5.0,10.0,9,0.00,,,0.00,Weather View 32 v70,2013-03-09 18:30:00,
2013-03-09 13:35:00,58.1,-0.5,29.74,ESE,123,6.0,10.0,9,0.00,,,0.00,Weather View 32 v70,2013-03-09 18:35:00,
2013-03-09 13:45:00,58.6,-0.1,29.74,East,92,6.0,9.0,9,0.00,,,0.00,Weather View 32 v70,2013-03-09 18:45:00,
2013-03-09 13:55:00,58.5,-0.3,29.74,SE,145,6.0,9.0,9,0.00,,,0.00,Weather View 32 v70,2013-03-09 18:55:00,
2013-03-09 14:00:00,58.8,0.0,29.74,NE,46,0.0,9.0,9,0.00,,,0.00,Weather View 32 v70,2013-03-09 19:00:00,
2013-03-09 14:10:00,58.8,0.0,29.74,East,93,9.0,9.0,9,0.00,,,0.00,Weather View 32 v70,2013-03-09 19:10:00,
2013-03-09 14:20:00,58.8,0.0,29.74,ENE,64,6.0,10.0,9,0.00,,,0.00,Weather View 32 v70,2013-03-09 19:20:00,
2013-03-09 14:25:00,59.0,0.1,29.74,ENE,76,0.0,10.0,9,0.00,,,0.00,Weather View 32 v70,2013-03-09 19:25:00,
2013-03-09 14:35:00,59.7,0.7,29.74,ENE,57,6.0,10.0,9,0.00,,,0.00,Weather View 32 v70,2013-03-09 19:35:00,
2013-03-09 14:45:00,60.1,1.0,29.74,ENE,78,6.0,10.0,9,0.00,,,0.00,Weather View 32 v70,2013-03-09 19:45:00,
2013-03-09 14:50:00,60.3,1.1,29.74,North,0,3.0,10.0,9,0.00,,,0.00,Weather View 32 v70,2013-03-09 19:50:00,
2013-03-09 15:00:00,60.1,1.0,29.74,ESE,104,5.0,10.0,9,0.00,,,0.00,Weather View 32 v70,2013-03-09 20:00:00,
2013-03-09 15:10:00,60.3,1.1,29.74,NNW,334,0.0,10.0,9,0.00,,,0.00,Weather View 32 v70,2013-03-09 20:10:00,
2013-03-09 15:15:00,60.6,1.4,29.74,ENE,57,5.0,10.0,9,0.00,,,0.00,Weather View 32 v70,2013-03-09 20:15:00,
2013-03-09 15:25:00,60.6,1.4,29.74,North,357,0.0,8.0,9,0.00,,,0.00,Weather View 32 v70,2013-03-09 20:25:00,
2013-03-09 15:30:00,60.8,1.5,29.74,North,6,0.0,8.0,9,0.00,,,0.00,Weather View 32 v70,2013-03-09 20:30:00,
2013-03-09 15:35:00,60.8,1.5,29.74,ENE,64,3.0,8.0,9,0.00,,,0.00,Weather View 32 v70,2013-03-09 20:35:00,
2013-03-09 15:40:00,60.6,1.4,29.74,SSE,165,2.0,8.0,9,0.00,,,0.00,Weather View 32 v70,2013-03-09 20:40:00,
2013-03-09 15:50:00,60.6,1.4,29.74,NW,318,2.0,8.0,9,0.00,,,0.00,Weather View 32 v70,2013-03-09 20:50:00,
2013-03-09 16:00:00,60.4,1.2,29.74,SE,133,4.0,8.0,9,0.00,,,0.00,Weather View 32 v70,2013-03-09 21:00:00,
2013-03-09 16:05:00,60.1,1.0,29.71,ENE,69,5.0,8.0,9,0.00,,,0.00,Weather View 32 v70,2013-03-09 21:05:00,
2013-03-09 16:15:00,59.9,0.8,29.71,ENE,61,4.0,8.0,9,0.00,,,0.00,Weather View 32 v70,2013-03-09 21:15:00,
2013-03-09 16:25:00,59.7,0.7,29.71,ENE,71,2.0,8.0,9,0.00,,,0.00,Weather View 32 v70,2013-03-09 21:25:00,
2013-03-09 16:30:00,59.7,0.7,29.71,ESE,104,3.0,8.0,9,0.00,,,0.00,Weather View 32 v70,2013-03-09 21:30:00,
2013-03-09 16:37:00,59.5,0.6,29.71,NE,50,4.0,8.0,9,0.00,,,0.00,Weather View 32 v70,2013-03-09 21:37:00,
2013-03-09 16:45:00,59.4,0.4,29.71,East,95,0.0,8.0,9,0.00,,,0.00,Weather View 32 v70,2013-03-09 21:45:00,
2013-03-09 16:50:00,59.2,0.3,29.71,ESE,102,4.0,8.0,9,0.00,,,0.00,Weather View 32 v70,2013-03-09 21:50:00,
2013-03-09 16:55:00,59.2,0.3,29.71,ENE,64,4.0,8.0,9,0.00,,,0.00,Weather View 32 v70,2013-03-09 21:55:00,
2013-03-09 17:05:00,59.0,0.1,29.71,East,83,5.0,8.0,9,0.00,,,0.00,Weather View 32 v70,2013-03-09 22:05:00,
2013-03-09 17:15:00,58.6,-0.1,29.71,East,85,0.0,8.0,9,0.00,,,0.00,Weather View 32 v70,2013-03-09 22:15:00,
2013-03-09 17:20:00,58.5,-0.3,29.71,ENE,69,0.0,8.0,9,0.00,,,0.00,Weather View 32 v70,2013-03-09 22:20:00,
2013-03-09 17:30:00,58.1,-0.5,29.71,ENE,60,4.0,8.0,9,0.00,,,0.00,Weather View 32 v70,2013-03-09 22:30:00,
2013-03-09 17:35:00,57.9,-0.7,29.71,ENE,61,0.0,8.0,9,0.00,,,0.00,Weather View 32 v70,2013-03-09 22:35:00,
2013-03-09 17:45:00,57.4,-1.1,29.71,East,96,0.0,6.0,9,0.00,,,0.00,Weather View 32 v70,2013-03-09 22:45:00,
2013-03-09 17:55:00,56.8,0.7,29.71,East,91,0.0,6.0,10,0.00,,,0.00,Weather View 32 v70,2013-03-09 22:55:00,
2013-03-09 18:05:00,56.5,0.5,29.74,ENE,75,0.0,6.0,10,0.00,,,0.00,Weather View 32 v70,2013-03-09 23:05:00,
2013-03-09 18:10:00,56.3,0.3,29.74,ENE,75,0.0,4.0,10,0.00,,,0.00,Weather View 32 v70,2013-03-09 23:10:00,
2013-03-09 18:20:00,55.4,-0.4,29.74,ENE,75,0.0,4.0,10,0.00,,,0.00,Weather View 32 v70,2013-03-09 23:20:00,
2013-03-09 18:25:00,54.3,-1.2,29.74,ENE,75,0.0,4.0,10,0.00,,,0.00,Weather View 32 v70,2013-03-09 23:25:00,
2013-03-09 18:35:00,52.5,-0.6,29.74,ENE,75,0.0,4.0,11,0.00,,,0.00,Weather View 32 v70,2013-03-09 23:35:00,
2013-03-09 18:45:00,50.7,-2.0,29.74,ENE,75,0.0,2.0,11,0.00,,,0.00,Weather View 32 v70,2013-03-09 23:45:00,
2013-03-09 18:50:00,49.8,-2.7,29.74,ENE,75,0.0,0.0,11,0.00,,,0.00,Weather View 32 v70,2013-03-09 23:50:00,
2013-03-09 19:00:00,48.2,-3.9,29.74,ENE,75,0.0,0.0,11,0.00,,,0.00,Weather View 32 v70,2013-03-10 00:00:00,
2013-03-09 19:05:00,47.5,-2.7,29.74,ENE,75,0.0,0.0,12,0.00,,,0.00,Weather View 32 v70,2013-03-10 00:05:00,
2013-03-09 19:15:00,46.2,-3.7,29.74,ENE,75,0.0,0.0,12,0.00,,,0.00,Weather View 32 v70,2013-03-10 00:15:00,
2013-03-09 19:20:00,45.7,-4.1,29.74,ENE,75,0.0,0.0,12,0.00,,,0.00,Weather View 32 v70,2013-03-10 00:20:00,
2013-03-09 19:30:00,44.6,-4.9,29.74,ENE,75,0.0,0.0,12,0.00,,,0.00,Weather View 32 v70,2013-03-10 00:30:00,
2013-03-09 19:39:00,44.1,-3.7,29.74,ENE,75,0.0,0.0,13,0.00,,,0.00,Weather View 32 v70,2013-03-10 00:39:00,
2013-03-09 19:45:00,43.0,-4.6,29.74,ENE,75,0.0,0.0,13,0.00,,,0.00,Weather View 32 v70,2013-03-10 00:45:00,
2013-03-09 19:55:00,41.9,-5.4,29.74,ENE,75,0.0,0.0,13,0.00,,,0.00,Weather View 32 v70,2013-03-10 00:55:00,
2013-03-09 20:00:00,41.4,-5.9,29.74,ENE,75,0.0,0.0,13,0.00,,,0.00,Weather View 32 v70,2013-03-10 01:00:00,
2013-03-09 20:10:00,40.6,-6.4,29.74,ENE,75,0.0,0.0,13,0.00,,,0.00,Weather View 32 v70,2013-03-10 01:10:00,
2013-03-09 20:15:00,40.3,-6.7,29.74,ENE,75,0.0,0.0,13,0.00,,,0.00,Weather View 32 v70,2013-03-10 01:15:00,
2013-03-09 20:25:00,39.6,-7.3,29.77,ENE,75,0.0,0.0,13,0.00,,,0.00,Weather View 32 v70,2013-03-10 01:25:00,
2013-03-09 20:35:00,38.7,-6.5,29.77,ENE,75,0.0,0.0,14,0.00,,,0.00,Weather View 32 v70,2013-03-10 01:35:00,
2013-03-09 20:40:00,38.3,-6.8,29.77,ENE,75,0.0,0.0,14,0.00,,,0.00,Weather View 32 v70,2013-03-10 01:40:00,
2013-03-09 20:50:00,37.6,-7.4,29.77,ENE,75,0.0,0.0,14,0.00,,,0.00,Weather View 32 v70,2013-03-10 01:50:00,
2013-03-09 20:55:00,37.4,-7.5,29.77,ENE,75,0.0,0.0,14,0.00,,,0.00,Weather View 32 v70,2013-03-10 01:55:00,
2013-03-09 21:05:00,37.0,-7.8,29.77,ENE,75,0.0,0.0,14,0.00,,,0.00,Weather View 32 v70,2013-03-10 02:05:00,
2013-03-09 21:15:00,36.5,-8.2,29.77,ENE,75,0.0,0.0,14,0.00,,,0.00,Weather View 32 v70,2013-03-10 02:15:00,
2013-03-09 21:20:00,36.1,-8.5,29.77,ENE,75,0.0,0.0,14,0.00,,,0.00,Weather View 32 v70,2013-03-10 02:20:00,
2013-03-09 21:30:00,35.6,-8.9,29.77,ENE,75,0.0,0.0,14,0.00,,,0.00,Weather View 32 v70,2013-03-10 02:30:00,
2013-03-09 21:35:00,35.4,-7.7,29.77,ENE,75,0.0,0.0,15,0.00,,,0.00,Weather View 32 v70,2013-03-10 02:35:00,
2013-03-09 21:40:00,35.1,-8.0,29.77,ENE,75,0.0,0.0,15,0.00,,,0.00,Weather View 32 v70,2013-03-10 02:40:00,
2013-03-09 21:50:00,34.3,-8.6,29.77,ENE,75,0.0,0.0,15,0.00,,,0.00,Weather View 32 v70,2013-03-10 02:50:00,
2013-03-09 22:00:00,34.0,-8.9,29.77,ENE,75,0.0,0.0,15,0.00,,,0.00,Weather View 32 v70,2013-03-10 03:00:00,
2013-03-09 22:05:00,34.2,-8.7,29.77,ENE,75,0.0,0.0,15,0.00,,,0.00,Weather View 32 v70,2013-03-10 03:05:00,
2013-03-09 22:15:00,33.6,-9.1,29.77,ENE,75,0.0,0.0,15,0.00,,,0.00,Weather View 32 v70,2013-03-10 03:15:00,
2013-03-09 22:25:00,33.1,-9.6,29.77,ENE,75,0.0,0.0,15,0.00,,,0.00,Weather View 32 v70,2013-03-10 03:25:00,
2013-03-09 22:30:00,32.9,-9.7,29.77,ENE,75,0.0,0.0,15,0.00,,,0.00,Weather View 32 v70,2013-03-10 03:30:00,
2013-03-09 22:40:00,32.7,-9.9,29.77,ENE,75,0.0,0.0,15,0.00,,,0.00,Weather View 32 v70,2013-03-10 03:40:00,
2013-03-09 22:50:00,32.5,-10.0,29.77,ENE,75,0.0,0.0,15,0.00,,,0.00,Weather View 32 v70,2013-03-10 03:50:00,
2013-03-09 22:55:00,32.2,-10.3,29.77,ENE,75,0.0,0.0,15,0.00,,,0.00,Weather View 32 v70,2013-03-10 03:55:00,
2013-03-09 23:05:00,31.6,-10.7,29.77,ENE,75,0.0,0.0,15,0.00,,,0.00,Weather View 32 v70,2013-03-10 04:05:00,
2013-03-09 23:10:00,31.5,-10.9,29.77,ENE,75,0.0,0.0,15,0.00,,,0.00,Weather View 32 v70,2013-03-10 04:10:00,
2013-03-09 23:20:00,31.1,-11.2,29.77,ENE,75,0.0,0.0,15,0.00,,,0.00,Weather View 32 v70,2013-03-10 04:20:00,
2013-03-09 23:25:00,30.9,-11.3,29.77,ENE,75,0.0,0.0,15,0.00,,,0.00,Weather View 32 v70,2013-03-10 04:25:00,
2013-03-09 23:35:00,30.6,-11.6,29.77,ENE,75,0.0,0.0,15,0.00,,,0.00,Weather View 32 v70,2013-03-10 04:35:00,
2013-03-09 23:40:00,30.4,-11.8,29.77,ENE,75,0.0,0.0,15,0.00,,,0.00,Weather View 32 v70,2013-03-10 04:40:00,
2013-03-09 23:45:00,30.2,-11.9,29.77,ENE,75,0.0,0.0,15,0.00,,,0.00,Weather View 32 v70,2013-03-10 04:45:00,
2013-03-09 23:50:00,30.2,-11.9,29.77,ENE,75,0.0,0.0,15,0.00,,,0.00,Weather View 32 v70,2013-03-10 04:50:00,